Time;durP1;ratioP1;P1;durP2;ratioP2;P2;SDS_P1;SDS_P2;PMS_P1;PMS_P2;Temp;Humidity;BMP_temperature;BMP_pressure;BME280_temperature;BME280_humidity;BME280_pressure;Samples;Min_cycle;Max_cycle;Signal;HPM_P1;HPM_P2
2022/03/01 00:02:13;;;;;;;7.03;3.85;;;;;;;-0.07;59.08;100842.25;1742153;82;21012;-69
2022/03/01 00:04:39;;;;;;;5.83;3.22;;;;;;;-0.02;59.18;100838.91;1742069;82;21048;-70
2022/03/01 00:07:07;;;;;;;5.85;3.25;;;;;;;0.02;59.28;100840.13;1739488;82;20957;-71
2022/03/01 00:09:35;;;;;;;8.68;2.83;;;;;;;0.08;59.25;100841.16;1742231;82;21092;-70
2022/03/01 00:12:02;;;;;;;5.87;3.02;;;;;;;0.07;59.30;100834.89;1742395;82;21518;-69
2022/03/01 00:14:29;;;;;;;4.92;2.70;;;;;;;0.11;59.27;100833.93;1741503;80;21005;-71
2022/03/01 00:16:56;;;;;;;7.65;3.02;;;;;;;0.07;59.37;100834.89;1743904;82;20957;-70
2022/03/01 00:19:23;;;;;;;5.65;3.12;;;;;;;0.05;59.27;100819.91;1742627;82;21536;-71
2022/03/01 00:21:49;;;;;;;9.45;3.85;;;;;;;0.04;59.34;100820.94;1743383;80;21515;-72
2022/03/01 00:24:23;;;;;;;8.83;3.62;;;;;;;0.03;59.55;100821.99;1742409;82;21625;-73
2022/03/01 00:27:26;;;;;;;6.08;3.12;;;;;;;-0.01;59.46;100816.17;1627008;85;21085;-69
2022/03/01 00:29:56;;;;;;;4.43;2.80;;;;;;;-0.04;59.68;100806.61;1735687;82;20957;-70
2022/03/01 00:32:24;;;;;;;7.05;2.92;;;;;;;-0.01;59.79;100806.69;1741861;80;21008;-72
2022/03/01 00:34:52;;;;;;;8.10;3.37;;;;;;;-0.01;59.76;100806.69;1741225;81;21130;-70
2022/03/01 00:37:23;;;;;;;4.63;2.33;;;;;;;-0.01;59.89;100806.69;1741704;81;21091;-71
2022/03/01 00:39:50;;;;;;;7.25;3.55;;;;;;;0.00;59.81;100808.37;1705965;82;21265;-70
2022/03/01 00:42:17;;;;;;;5.85;3.67;;;;;;;-0.01;59.80;100806.17;1739882;82;21009;-70
2022/03/01 00:44:47;;;;;;;7.47;3.00;;;;;;;-0.07;59.88;100807.56;1740753;82;21036;-72
2022/03/01 00:47:16;;;;;;;5.90;3.50;;;;;;;-0.14;60.07;100809.77;1739129;82;20994;-70
2022/03/01 00:49:45;;;;;;;5.67;2.95;;;;;;;-0.17;60.22;100808.04;1739997;82;20986;-72
2022/03/01 00:52:11;;;;;;;7.67;2.85;;;;;;;-0.15;60.36;100808.12;1741871;80;21029;-71
2022/03/01 00:54:39;;;;;;;5.75;3.20;;;;;;;-0.12;60.57;100810.94;1741138;82;21009;-72
2022/03/01 00:57:12;;;;;;;5.58;3.22;;;;;;;-0.12;60.52;100808.23;1740793;82;21059;-71
2022/03/01 00:59:38;;;;;;;6.40;3.58;;;;;;;-0.11;60.55;100808.52;1737318;82;21533;-69
2022/03/01 01:02:05;;;;;;;7.85;3.22;;;;;;;-0.09;60.65;100805.59;1742294;80;21056;-70
2022/03/01 01:04:36;;;;;;;7.28;3.45;;;;;;;-0.06;60.89;100808.70;1742986;81;20949;-69
2022/03/01 01:07:05;;;;;;;5.40;2.72;;;;;;;-0.01;60.69;100810.23;1738421;81;20914;-71
2022/03/01 01:09:32;;;;;;;9.13;3.35;;;;;;;-0.06;60.55;100805.99;1709540;81;21060;-71
2022/03/01 01:12:00;;;;;;;5.12;3.15;;;;;;;-0.16;60.68;100805.11;1738885;82;21109;-72
2022/03/01 01:14:27;;;;;;;5.45;2.72;;;;;;;-0.22;60.94;100811.92;1725681;82;20941;-71
2022/03/01 01:16:53;;;;;;;6.08;3.22;;;;;;;-0.20;61.15;100808.45;1746667;81;21259;-70
2022/03/01 01:19:20;;;;;;;4.55;2.80;;;;;;;-0.19;61.30;100808.77;1748473;81;21608;-72
2022/03/01 01:24:20;;;;;;;7.40;3.40;;;;;;;-0.11;61.60;100804.45;1713494;81;21337;-70
2022/03/01 01:26:47;;;;;;;5.45;2.90;;;;;;;-0.06;61.47;100811.41;1750840;81;20909;-71
2022/03/01 01:29:14;;;;;;;6.40;3.35;;;;;;;-0.06;61.43;100815.48;1742442;81;20985;-71
2022/03/01 01:31:45;;;;;;;6.75;3.33;;;;;;;-0.11;61.64;100809.87;1742201;81;20993;-71
2022/03/01 01:34:12;;;;;;;6.72;3.27;;;;;;;-0.15;61.71;100817.60;1741394;82;21587;-70
2022/03/01 01:36:38;;;;;;;6.85;3.42;;;;;;;-0.14;61.68;100815.19;1741350;82;21138;-71
2022/03/01 01:39:05;;;;;;;4.50;2.42;;;;;;;-0.15;61.68;100814.05;1743702;82;21052;-69
2022/03/01 01:41:35;;;;;;;7.45;3.22;;;;;;;-0.21;61.63;100808.99;1742624;82;21509;-72
2022/03/01 01:44:06;;;;;;;8.58;3.58;;;;;;;-0.28;61.77;100813.09;1740614;82;21584;-72
2022/03/01 01:46:32;;;;;;;7.08;3.27;;;;;;;-0.33;61.80;100812.06;1743223;82;21003;-69
2022/03/01 01:48:59;;;;;;;4.85;2.75;;;;;;;-0.35;62.01;100812.28;1706486;82;21723;-72
2022/03/01 01:51:28;;;;;;;6.10;2.98;;;;;;;-0.34;62.09;100809.06;1702535;82;21095;-71
2022/03/01 01:53:54;;;;;;;6.97;3.47;;;;;;;-0.38;62.43;100811.36;1741400;82;21001;-71
2022/03/01 01:56:20;;;;;;;9.25;4.22;;;;;;;-0.41;62.87;100811.80;1709801;82;20960;-70
2022/03/01 01:58:49;;;;;;;5.90;3.33;;;;;;;-0.42;63.05;100815.02;1717840;81;20928;-71
2022/03/01 02:01:18;;;;;;;11.35;3.98;;;;;;;-0.39;63.36;100819.16;1742869;80;21394;-71
2022/03/01 02:03:48;;;;;;;10.38;3.22;;;;;;;-0.36;63.43;100809.28;1741096;82;21040;-71
2022/03/01 02:06:16;;;;;;;7.17;3.50;;;;;;;-0.32;63.44;100819.97;1744606;82;20933;-71
2022/03/01 02:08:44;;;;;;;7.40;3.30;;;;;;;-0.28;63.54;100816.31;1711289;82;20996;-70
2022/03/01 02:11:11;;;;;;;9.05;4.00;;;;;;;-0.28;63.46;100817.67;1742319;82;21702;-70
2022/03/01 02:13:37;;;;;;;8.00;3.35;;;;;;;-0.35;63.48;100819.05;1743051;82;21122;-71
2022/03/01 02:16:08;;;;;;;9.03;3.55;;;;;;;-0.42;63.86;100815.02;1733428;82;21052;-68
2022/03/01 02:18:37;;;;;;;6.10;3.45;;;;;;;-0.41;64.22;100813.97;1741352;81;21045;-72
2022/03/01 02:21:04;;;;;;;6.55;4.03;;;;;;;-0.36;64.44;100809.28;1717794;81;21002;-70
2022/03/01 02:23:30;;;;;;;8.40;4.00;;;;;;;-0.30;64.62;100805.70;1743285;82;21485;-71
2022/03/01 02:26:00;;;;;;;9.13;3.80;;;;;;;-0.26;64.80;100806.10;1740305;82;20976;-71
2022/03/01 02:28:31;;;;;;;9.15;3.92;;;;;;;-0.23;64.92;100802.11;1742249;82;20949;-71
2022/03/01 02:30:59;;;;;;;8.25;4.05;;;;;;;-0.19;65.19;100806.91;1740698;82;20988;-71
2022/03/01 02:33:25;;;;;;;8.08;4.00;;;;;;;-0.22;65.35;100801.08;1742344;82;21529;-69
2022/03/01 02:35:52;;;;;;;7.92;4.08;;;;;;;-0.23;65.66;100805.66;1742952;82;21477;-72
2022/03/01 02:38:20;;;;;;;6.53;3.52;;;;;;;-0.24;65.85;100799.95;1741281;82;21107;-71
2022/03/01 02:40:46;;;;;;;11.05;4.08;;;;;;;-0.27;66.76;100797.64;1709464;82;20929;-70
2022/03/01 02:43:16;;;;;;;6.45;3.17;;;;;;;-0.41;67.55;100799.61;1742088;82;21009;-70
2022/03/01 02:45:46;;;;;;;10.10;3.65;;;;;;;-0.53;68.46;100798.91;1711520;82;21036;-71
2022/03/01 02:48:18;;;;;;;7.65;4.10;;;;;;;-0.63;70.48;100797.17;1744516;82;21067;-70
2022/03/01 02:50:44;;;;;;;9.50;5.08;;;;;;;-0.70;75.86;100793.67;1743175;82;21531;-70
2022/03/01 02:53:12;;;;;;;8.10;4.22;;;;;;;-0.77;80.34;100803.98;1741200;82;21068;-69
2022/03/01 02:55:40;;;;;;;12.58;5.50;;;;;;;-0.75;81.63;100805.15;1738442;82;20952;-68
2022/03/01 02:58:06;;;;;;;9.60;5.25;;;;;;;-0.72;81.33;100802.02;1711561;82;20953;-71
2022/03/01 03:00:34;;;;;;;20.10;6.45;;;;;;;-0.68;80.15;100799.72;1740666;82;21063;-71
2022/03/01 03:03:01;;;;;;;11.88;4.80;;;;;;;-0.66;79.55;100790.31;1742775;82;21551;-71
2022/03/01 03:05:28;;;;;;;9.48;4.58;;;;;;;-0.71;79.10;100792.83;1711018;82;20985;-67
2022/03/01 03:07:54;;;;;;;7.80;4.30;;;;;;;-0.72;78.92;100790.34;1711419;82;21504;-69
2022/03/01 03:10:21;;;;;;;9.20;4.78;;;;;;;-0.78;78.49;100787.44;1742439;80;21030;-71
2022/03/01 03:12:48;;;;;;;10.35;4.72;;;;;;;-0.74;78.07;100787.34;1741902;81;20980;-71
2022/03/01 03:15:19;;;;;;;10.35;5.17;;;;;;;-0.68;77.86;100784.83;1742157;82;21070;-71
2022/03/01 03:17:45;;;;;;;10.18;5.00;;;;;;;-0.74;77.49;100781.08;1714533;82;21068;-70
2022/03/01 03:20:12;;;;;;;10.65;5.35;;;;;;;-0.82;77.70;100779.97;1736094;82;20997;-70
2022/03/01 03:22:40;;;;;;;7.85;4.67;;;;;;;-0.84;77.97;100784.24;1741188;82;20902;-71
2022/03/01 03:25:08;;;;;;;9.23;5.25;;;;;;;-0.81;78.18;100780.27;1741834;80;20941;-69
2022/03/01 03:27:35;;;;;;;9.40;5.25;;;;;;;-0.79;78.14;100783.08;1740540;82;21078;-69
2022/03/01 03:30:03;;;;;;;9.48;4.62;;;;;;;-0.82;78.01;100782.67;1740562;82;20993;-69
2022/03/01 03:32:31;;;;;;;8.75;4.83;;;;;;;-0.89;78.24;100778.63;1742687;81;21028;-71
2022/03/01 03:35:00;;;;;;;9.05;4.90;;;;;;;-0.91;78.65;100769.37;1704830;82;21536;-70
2022/03/01 03:37:29;;;;;;;13.03;5.00;;;;;;;-0.86;78.84;100772.79;1740433;80;21111;-69
2022/03/01 03:39:58;;;;;;;7.03;4.35;;;;;;;-0.86;78.58;100777.69;1711706;82;21087;-71
2022/03/01 03:42:29;;;;;;;10.50;5.65;;;;;;;-1.00;78.76;100774.69;1738799;82;21035;-70
2022/03/01 03:44:57;;;;;;;9.58;4.92;;;;;;;-1.07;79.18;100770.65;1738626;82;20973;-69
2022/03/01 03:47:24;;;;;;;8.33;5.08;;;;;;;-1.06;79.66;100770.98;1739166;82;20945;-71
2022/03/01 03:49:52;;;;;;;10.53;5.12;;;;;;;-1.04;79.95;100763.45;1707427;82;21036;-71
2022/03/01 03:52:19;;;;;;;8.90;5.85;;;;;;;-1.07;79.99;100765.23;1741318;82;21138;-69
2022/03/01 03:54:47;;;;;;;8.98;5.33;;;;;;;-1.05;80.24;100767.73;1740590;82;20989;-70
2022/03/01 03:57:13;;;;;;;8.40;4.37;;;;;;;-1.07;80.14;100763.05;1740314;82;21126;-69
2022/03/01 03:59:40;;;;;;;9.90;5.62;;;;;;;-1.11;80.47;100760.77;1740588;82;21056;-72
2022/03/01 04:02:07;;;;;;;7.50;4.45;;;;;;;-1.07;80.77;100766.59;1742976;82;21067;-68
2022/03/01 04:04:34;;;;;;;12.58;5.50;;;;;;;-1.14;80.65;100759.00;1708324;82;21039;-70
2022/03/01 04:07:02;;;;;;;8.33;4.60;;;;;;;-1.21;80.96;100752.80;1740687;82;21044;-71
2022/03/01 04:09:30;;;;;;;7.95;4.75;;;;;;;-1.20;81.37;100750.39;1741739;82;21031;-70
2022/03/01 04:12:00;;;;;;;11.35;5.30;;;;;;;-1.16;81.58;100750.29;1743212;82;21501;-71
2022/03/01 04:14:26;;;;;;;8.78;5.28;;;;;;;-1.16;81.51;100746.23;1742027;80;21347;-69
2022/03/01 04:16:53;;;;;;;8.83;4.78;;;;;;;-1.20;82.94;100740.41;1743930;82;21158;-71
2022/03/01 04:19:22;;;;;;;11.03;4.80;;;;;;;-1.27;83.58;100744.48;1710284;82;20949;-71
2022/03/01 04:21:49;;;;;;;9.93;4.90;;;;;;;-1.31;83.87;100737.81;1742723;80;20976;-71
2022/03/01 04:24:21;;;;;;;7.78;4.55;;;;;;;-1.25;84.34;100742.40;1738568;82;21052;-70
2022/03/01 04:26:54;;;;;;;12.13;5.50;;;;;;;-1.20;85.61;100739.05;1739966;82;20957;-70
2022/03/01 04:29:27;;;;;;;11.10;5.10;;;;;;;-1.21;85.79;100743.33;1742763;82;22141;-70
2022/03/01 04:31:53;;;;;;;8.65;5.37;;;;;;;-1.21;86.28;100737.92;1714911;82;21047;-71
2022/03/01 04:34:20;;;;;;;10.10;4.87;;;;;;;-1.24;86.95;100740.50;1738960;82;21060;-70
2022/03/01 04:36:51;;;;;;;7.03;4.55;;;;;;;-1.27;87.63;100741.77;1744033;82;21059;-69
2022/03/01 04:39:21;;;;;;;11.10;5.37;;;;;;;-1.38;87.75;100733.77;1711839;82;20968;-70
2022/03/01 04:41:48;;;;;;;14.93;5.55;;;;;;;-1.47;87.62;100739.10;1711732;82;22005;-71
2022/03/01 04:44:18;;;;;;;11.55;5.22;;;;;;;-1.55;87.74;100739.32;1741793;81;21481;-69
2022/03/01 04:46:44;;;;;;;10.58;5.30;;;;;;;-1.58;87.99;100745.96;1707104;82;20988;-70
2022/03/01 04:49:10;;;;;;;10.38;6.05;;;;;;;-1.60;88.03;100738.57;1741578;82;21052;-70
2022/03/01 04:51:39;;;;;;;8.70;4.97;;;;;;;-1.58;88.34;100740.55;1709495;82;21053;-70
2022/03/01 04:54:06;;;;;;;7.83;3.92;;;;;;;-1.56;88.30;100739.83;1741347;82;21580;-71
2022/03/01 04:56:36;;;;;;;11.33;4.15;;;;;;;-1.53;88.32;100738.05;1740620;82;20997;-70
2022/03/01 04:59:04;;;;;;;10.72;4.37;;;;;;;-1.49;87.95;100745.23;1741463;82;21568;-70
2022/03/01 05:01:33;;;;;;;9.90;5.03;;;;;;;-1.54;88.42;100745.87;1741689;82;21048;-69
2022/03/01 05:04:01;;;;;;;8.28;4.72;;;;;;;-1.54;89.32;100747.22;1741087;82;21117;-70
2022/03/01 05:06:30;;;;;;;10.60;4.37;;;;;;;-1.52;89.77;100747.81;1740672;82;20929;-69
2022/03/01 05:08:56;;;;;;;9.05;5.00;;;;;;;-1.50;89.79;100751.15;1709739;82;20945;-70
2022/03/01 05:11:24;;;;;;;8.15;4.37;;;;;;;-1.52;90.06;100751.87;1741147;82;20972;-70
2022/03/01 05:13:51;;;;;;;7.05;4.05;;;;;;;-1.42;90.77;100758.23;1741713;82;21017;-68
2022/03/01 05:16:17;;;;;;;12.07;4.60;;;;;;;-1.28;91.05;100755.52;1742603;82;20912;-70
2022/03/01 05:18:46;;;;;;;7.67;4.08;;;;;;;-1.19;90.57;100759.64;1737997;80;21072;-70
2022/03/01 05:21:16;;;;;;;7.45;4.53;;;;;;;-1.15;90.30;100747.88;1741529;82;21548;-68
2022/03/01 05:23:45;;;;;;;7.37;4.03;;;;;;;-1.10;89.82;100753.48;1714890;82;20973;-68
2022/03/01 05:26:11;;;;;;;6.28;4.10;;;;;;;-1.14;89.38;100750.88;1741415;82;21041;-68
2022/03/01 05:28:40;;;;;;;7.87;3.80;;;;;;;-1.13;89.58;100752.05;1711378;82;20996;-71
2022/03/01 05:31:06;;;;;;;8.18;4.12;;;;;;;-1.08;90.25;100751.92;1709854;82;20991;-70
2022/03/01 05:33:33;;;;;;;8.50;4.30;;;;;;;-1.13;93.11;100751.21;1740622;82;21024;-70
2022/03/01 05:36:01;;;;;;;6.78;4.40;;;;;;;-1.14;94.08;100747.66;1743034;82;21141;-69
2022/03/01 05:38:28;;;;;;;8.35;4.17;;;;;;;-1.13;94.13;100743.94;1743387;82;20912;-68
2022/03/01 05:40:57;;;;;;;9.53;4.75;;;;;;;-1.12;94.20;100747.45;1741498;82;20965;-70
2022/03/01 05:43:24;;;;;;;7.20;3.77;;;;;;;-1.18;93.60;100742.39;1738278;82;21607;-70
2022/03/01 05:45:51;;;;;;;9.45;4.30;;;;;;;-1.18;94.11;100741.03;1740721;82;21545;-68
2022/03/01 05:48:21;;;;;;;6.75;4.22;;;;;;;-1.08;94.31;100741.94;1742491;82;21466;-70
2022/03/01 05:50:50;;;;;;;7.35;4.20;;;;;;;-0.97;94.20;100735.56;1710140;82;20909;-70
2022/03/01 05:53:19;;;;;;;9.85;4.60;;;;;;;-1.00;93.48;100740.87;1740785;81;20874;-70
2022/03/01 05:55:45;;;;;;;6.10;3.87;;;;;;;-1.00;92.97;100732.75;1742563;81;21132;-71
2022/03/01 05:58:13;;;;;;;6.62;4.20;;;;;;;-0.97;92.58;100732.86;1741274;82;21044;-71
2022/03/01 06:00:41;;;;;;;7.37;4.37;;;;;;;-0.95;92.17;100729.39;1741248;82;21080;-70
2022/03/01 06:03:08;;;;;;;9.30;4.22;;;;;;;-1.03;90.73;100728.61;1713521;82;21098;-70
2022/03/01 06:05:35;;;;;;;7.90;3.87;;;;;;;-1.10;90.57;100726.44;1711829;82;21016;-70
2022/03/01 06:08:03;;;;;;;11.63;4.92;;;;;;;-1.14;91.17;100722.48;1720822;81;21043;-69
2022/03/01 06:10:31;;;;;;;11.75;5.37;;;;;;;-1.16;91.97;100719.98;1742796;82;20933;-71
2022/03/01 06:13:02;;;;;;;11.12;5.42;;;;;;;-1.04;93.00;100718.00;1741444;82;20956;-71
2022/03/01 06:15:30;;;;;;;10.95;5.10;;;;;;;-0.95;92.35;100718.57;1739421;80;20929;-70
2022/03/01 06:17:59;;;;;;;11.55;5.35;;;;;;;-0.94;92.55;100727.02;1743914;82;21074;-70
2022/03/01 06:20:27;;;;;;;12.47;4.85;;;;;;;-0.86;92.78;100729.48;1712543;82;21537;-70
2022/03/01 06:22:53;;;;;;;9.95;5.12;;;;;;;-0.77;92.74;100735.49;1716980;82;21514;-70
2022/03/01 06:25:20;;;;;;;10.55;5.65;;;;;;;-0.69;92.44;100738.47;1711065;81;20988;-71
2022/03/01 06:27:47;;;;;;;7.45;4.15;;;;;;;-0.62;91.99;100739.28;1740924;82;21051;-71
2022/03/01 06:30:14;;;;;;;9.28;4.65;;;;;;;-0.60;91.10;100739.91;1742071;81;20992;-70
2022/03/01 06:32:42;;;;;;;9.33;5.08;;;;;;;-0.69;90.34;100736.60;1740475;82;21434;-70
2022/03/01 06:35:10;;;;;;;10.25;5.83;;;;;;;-0.75;90.42;100737.47;1709607;82;20945;-70
2022/03/01 06:37:37;;;;;;;10.63;5.85;;;;;;;-0.84;91.63;100728.75;1741508;82;20854;-72
2022/03/01 06:40:07;;;;;;;10.18;4.62;;;;;;;-0.81;92.85;100727.48;1743067;81;21114;-71
2022/03/01 06:42:34;;;;;;;10.38;4.90;;;;;;;-0.75;92.82;100722.58;1741169;82;21107;-70
2022/03/01 06:45:02;;;;;;;10.28;5.08;;;;;;;-0.75;93.05;100726.09;1738566;82;21294;-70
2022/03/01 06:47:29;;;;;;;10.93;5.58;;;;;;;-0.74;93.18;100724.23;1741759;82;20929;-71
2022/03/01 06:49:58;;;;;;;9.63;5.20;;;;;;;-0.75;93.71;100726.64;1744739;82;20972;-70
2022/03/01 06:52:28;;;;;;;7.97;4.65;;;;;;;-0.75;94.79;100728.80;1743343;82;20985;-72
2022/03/01 06:54:55;;;;;;;9.05;5.15;;;;;;;-0.74;95.66;100729.64;1740791;82;20940;-72
2022/03/01 06:57:23;;;;;;;8.78;4.53;;;;;;;-0.69;95.30;100729.83;1741258;82;21000;-70
2022/03/01 06:59:53;;;;;;;10.05;5.53;;;;;;;-0.77;95.36;100736.30;1744574;82;21107;-72
2022/03/01 07:02:21;;;;;;;11.35;5.78;;;;;;;-0.73;96.06;100739.42;1742761;80;21000;-68
2022/03/01 07:04:50;;;;;;;9.23;5.37;;;;;;;-0.68;95.87;100738.25;1741822;82;21048;-69
2022/03/01 07:07:16;;;;;;;8.33;5.25;;;;;;;-0.65;95.71;100737.00;1741283;82;20937;-70
2022/03/01 07:09:43;;;;;;;11.12;5.62;;;;;;;-0.65;95.93;100731.59;1740553;82;21935;-71
2022/03/01 07:12:12;;;;;;;8.75;4.42;;;;;;;-0.57;95.78;100738.63;1741431;82;21036;-70
2022/03/01 07:14:39;;;;;;;10.23;4.42;;;;;;;-0.54;95.50;100732.27;1743355;82;20942;-68
2022/03/01 07:17:06;;;;;;;14.35;5.87;;;;;;;-0.46;95.05;100741.19;1741362;82;21009;-71
2022/03/01 07:19:35;;;;;;;9.60;5.15;;;;;;;-0.46;94.34;100733.06;1712096;82;21035;-70
2022/03/01 07:22:02;;;;;;;8.23;4.67;;;;;;;-0.52;94.04;100734.23;1738431;82;21074;-69
2022/03/01 07:24:29;;;;;;;11.15;5.30;;;;;;;-0.54;93.45;100732.77;1740475;82;20950;-70
2022/03/01 07:27:06;;;;;;;13.18;5.33;;;;;;;-0.53;93.49;100729.84;1709580;82;20953;-69
2022/03/01 07:29:33;;;;;;;10.25;4.90;;;;;;;-0.53;93.26;100731.74;1741988;82;21044;-68
2022/03/01 07:32:01;;;;;;;8.45;4.87;;;;;;;-0.48;93.45;100722.97;1741619;82;20997;-71
2022/03/01 07:34:28;;;;;;;12.20;5.97;;;;;;;-0.43;93.02;100726.70;1742471;82;21131;-70
2022/03/01 07:36:57;;;;;;;10.55;5.80;;;;;;;-0.54;94.10;100727.36;1740466;82;21103;-70
2022/03/01 07:39:23;;;;;;;10.13;5.35;;;;;;;-0.65;96.14;100727.53;1741709;82;21069;-71
2022/03/01 07:41:52;;;;;;;8.43;5.20;;;;;;;-0.59;96.92;100732.08;1742217;82;21004;-69
2022/03/01 07:44:24;;;;;;;12.15;6.25;;;;;;;-0.48;96.97;100725.16;1736863;82;21098;-71
2022/03/01 07:46:56;;;;;;;10.10;5.78;;;;;;;-0.35;96.45;100730.17;1740734;82;21536;-71
2022/03/01 07:49:23;;;;;;;8.90;5.45;;;;;;;-0.37;94.86;100734.45;1742789;80;21004;-72
2022/03/01 07:51:51;;;;;;;13.75;6.53;;;;;;;-0.38;94.96;100734.16;1737426;81;21134;-69
2022/03/01 07:54:19;;;;;;;11.33;6.15;;;;;;;-0.31;95.09;100739.03;1742109;82;21073;-71
2022/03/01 07:56:46;;;;;;;12.90;6.33;;;;;;;-0.26;94.76;100734.30;1736704;82;21099;-71
2022/03/01 07:59:12;;;;;;;12.37;6.62;;;;;;;-0.19;94.56;100728.84;1742704;82;21509;-69
2022/03/01 08:01:38;;;;;;;10.50;5.72;;;;;;;-0.13;94.46;100739.64;1740737;82;20932;-72
2022/03/01 08:04:06;;;;;;;12.82;6.75;;;;;;;-0.06;94.20;100726.05;1742671;82;21547;-72
2022/03/01 08:06:33;;;;;;;13.22;6.95;;;;;;;-0.01;93.55;100734.34;1741577;82;21501;-71
2022/03/01 08:08:59;;;;;;;9.30;5.55;;;;;;;0.10;93.23;100740.11;1685880;82;20996;-73
2022/03/01 08:11:29;;;;;;;9.43;5.65;;;;;;;0.16;91.97;100738.38;1741123;82;21135;-72
2022/03/01 08:13:58;;;;;;;12.60;5.67;;;;;;;0.18;91.34;100736.29;1740870;82;20909;-69
2022/03/01 08:16:29;;;;;;;11.90;6.45;;;;;;;0.25;91.09;100737.08;1743419;82;20988;-71
2022/03/01 08:18:57;;;;;;;13.18;6.37;;;;;;;0.30;90.26;100737.24;1738829;82;21556;-72
2022/03/01 08:21:24;;;;;;;10.88;6.35;;;;;;;0.29;89.22;100726.62;1710353;82;20957;-69
2022/03/01 08:23:50;;;;;;;11.30;5.80;;;;;;;0.22;88.60;100730.20;1742726;82;21748;-70
2022/03/01 08:26:16;;;;;;;9.58;5.83;;;;;;;0.21;88.47;100733.97;1741926;81;20941;-70
2022/03/01 08:28:45;;;;;;;8.68;5.58;;;;;;;0.21;88.25;100728.55;1741038;82;21091;-70
2022/03/01 08:31:12;;;;;;;11.40;6.50;;;;;;;0.23;87.84;100723.74;1740502;82;20976;-69
2022/03/01 08:33:39;;;;;;;11.30;6.62;;;;;;;0.23;87.42;100725.09;1740792;82;21028;-71
2022/03/01 08:36:07;;;;;;;12.70;6.83;;;;;;;0.15;86.89;100719.95;1744846;81;21515;-72
2022/03/01 08:38:36;;;;;;;11.60;6.15;;;;;;;0.06;86.47;100718.55;1708086;80;21036;-71
2022/03/01 08:41:04;;;;;;;10.98;6.28;;;;;;;-0.01;87.11;100718.60;1740752;82;21564;-71
2022/03/01 08:43:31;;;;;;;10.18;5.72;;;;;;;0.04;87.67;100722.00;1735630;82;21012;-71
2022/03/01 08:46:01;;;;;;;10.85;6.22;;;;;;;0.13;87.76;100719.34;1742249;82;21024;-72
2022/03/01 08:48:28;;;;;;;10.63;6.08;;;;;;;0.14;86.92;100718.82;1741362;82;21517;-72
2022/03/01 08:50:59;;;;;;;16.00;7.37;;;;;;;0.13;86.92;100725.27;1744052;82;20976;-70
2022/03/01 08:53:27;;;;;;;13.08;7.05;;;;;;;0.13;86.58;100717.98;1736337;80;20917;-70
2022/03/01 08:55:53;;;;;;;10.18;6.35;;;;;;;0.10;86.65;100719.23;1740731;81;21411;-71
2022/03/01 08:58:22;;;;;;;11.53;6.28;;;;;;;0.13;87.12;100714.43;1680820;82;20949;-71
2022/03/01 09:00:53;;;;;;;9.23;5.60;;;;;;;0.18;87.01;100718.15;1725104;81;20989;-72
2022/03/01 09:03:23;;;;;;;10.48;5.87;;;;;;;0.23;86.57;100710.19;1716364;81;21540;-70
2022/03/01 09:05:53;;;;;;;12.65;7.08;;;;;;;0.22;85.75;100710.41;1738020;81;20953;-70
2022/03/01 09:08:20;;;;;;;11.22;6.25;;;;;;;0.17;85.84;100714.31;1740930;82;21422;-70
2022/03/01 09:10:47;;;;;;;12.63;5.75;;;;;;;0.18;86.15;100712.73;1740961;82;21442;-71
2022/03/01 09:13:16;;;;;;;9.45;5.65;;;;;;;0.23;86.26;100709.34;1741618;82;20933;-70
2022/03/01 09:15:46;;;;;;;9.90;6.17;;;;;;;0.26;85.93;100710.25;1742842;82;21269;-71
2022/03/01 09:18:19;;;;;;;11.00;6.00;;;;;;;0.30;85.44;100722.33;1741066;81;21120;-72
2022/03/01 09:20:50;;;;;;;11.48;6.45;;;;;;;0.17;84.84;100708.34;1740541;82;21086;-72
2022/03/01 09:23:18;;;;;;;11.50;6.37;;;;;;;0.08;85.06;100710.52;1708074;82;21382;-72
2022/03/01 09:25:48;;;;;;;12.18;6.60;;;;;;;0.10;85.52;100704.87;1742112;82;21106;-73
2022/03/01 09:28:14;;;;;;;9.90;6.30;;;;;;;0.17;85.35;100699.39;1738305;82;21008;-72
2022/03/01 09:30:49;;;;;;;12.70;6.70;;;;;;;0.23;85.53;100702.05;1736750;82;21064;-71
2022/03/01 09:33:16;;;;;;;10.10;5.80;;;;;;;0.28;85.19;100698.66;1707507;82;21064;-71
2022/03/01 09:35:46;;;;;;;12.05;7.00;;;;;;;0.33;85.29;100702.90;1707201;82;20964;-71
2022/03/01 09:38:19;;;;;;;11.30;6.85;;;;;;;0.34;85.02;100700.48;1742964;82;22136;-71
2022/03/01 09:40:47;;;;;;;13.32;7.15;;;;;;;0.28;84.51;100699.18;1741448;82;20993;-73
2022/03/01 09:43:15;;;;;;;10.05;6.40;;;;;;;0.23;84.70;100695.78;1740875;82;21096;-72
2022/03/01 09:45:45;;;;;;;13.95;7.53;;;;;;;0.17;84.76;100685.84;1738205;82;21110;-70
2022/03/01 09:48:15;;;;;;;15.15;6.80;;;;;;;0.18;85.32;100696.46;1741236;80;20989;-72
2022/03/01 09:50:41;;;;;;;13.53;7.28;;;;;;;0.32;85.72;100693.63;1744092;82;21145;-72
2022/03/01 09:53:09;;;;;;;11.33;6.67;;;;;;;0.41;85.36;100681.98;1718299;81;20997;-70
2022/03/01 09:55:37;;;;;;;13.10;6.37;;;;;;;0.48;85.27;100687.63;1742938;81;21021;-73
2022/03/01 09:58:08;;;;;;;13.20;7.00;;;;;;;0.60;85.23;100686.88;1740795;82;20972;-73
2022/03/01 10:00:45;;;;;;;11.18;6.42;;;;;;;0.69;84.95;100684.19;1712381;82;21126;-74
2022/03/01 10:03:19;;;;;;;12.15;6.65;;;;;;;0.79;84.89;100678.75;1711464;81;21957;-72
2022/03/01 10:05:48;;;;;;;11.28;6.97;;;;;;;0.87;84.38;100679.80;1735324;81;21037;-70
2022/03/01 10:08:25;;;;;;;13.40;7.15;;;;;;;0.91;84.24;100676.11;1738643;82;21485;-72
2022/03/01 10:10:54;;;;;;;11.88;7.20;;;;;;;1.00;84.11;100682.06;1737055;82;21014;-72
2022/03/01 10:13:29;;;;;;;11.93;6.53;;;;;;;1.03;83.71;100682.45;1741661;82;20882;-73
2022/03/01 10:16:08;;;;;;;10.38;6.30;;;;;;;1.01;82.78;100682.39;1741507;81;21050;-70
2022/03/01 10:18:44;;;;;;;10.88;5.87;;;;;;;0.91;82.76;100676.95;1739362;81;20988;-71
2022/03/01 10:21:16;;;;;;;10.85;6.20;;;;;;;0.90;83.16;100675.30;1741660;81;21011;-70
2022/03/01 10:23:52;;;;;;;10.70;6.17;;;;;;;0.96;83.20;100679.81;1740371;82;21013;-71
2022/03/01 10:26:22;;;;;;;9.35;6.58;;;;;;;0.95;82.78;100673.25;1714706;82;20885;-72
2022/03/01 10:28:50;;;;;;;11.38;7.10;;;;;;;0.94;82.68;100673.77;1740221;81;21056;-71
2022/03/01 10:31:22;;;;;;;10.82;6.67;;;;;;;0.94;82.66;100669.70;1716573;81;20912;-72
2022/03/01 10:34:00;;;;;;;10.55;6.67;;;;;;;0.96;82.61;100674.91;1708909;82;21016;-70
2022/03/01 10:36:48;;;;;;;11.20;7.35;;;;;;;0.92;82.39;100666.38;1740775;82;21024;-73
2022/03/01 10:39:20;;;;;;;14.75;7.65;;;;;;;0.95;82.58;100667.31;1742624;82;20976;-72
2022/03/01 10:41:49;;;;;;;11.50;6.95;;;;;;;0.99;82.67;100666.84;1740779;82;21140;-73
2022/03/01 10:44:25;;;;;;;13.75;7.20;;;;;;;1.04;82.43;100665.64;1707558;82;21472;-73
2022/03/01 10:46:57;;;;;;;14.80;7.47;;;;;;;1.03;82.28;100660.73;1736855;82;21150;-70
2022/03/01 10:49:27;;;;;;;15.53;9.55;;;;;;;1.00;81.70;100661.70;1708530;82;21052;-73
2022/03/01 10:52:02;;;;;;;15.75;9.05;;;;;;;0.95;82.04;100659.16;1737803;82;21150;-73
2022/03/01 10:54:40;;;;;;;12.05;6.95;;;;;;;0.95;82.11;100658.33;1742340;82;21857;-72
2022/03/01 10:57:11;;;;;;;14.73;8.10;;;;;;;0.90;81.88;100658.17;1695347;82;21057;-71
2022/03/01 10:59:41;;;;;;;12.88;8.08;;;;;;;0.90;82.05;100652.75;1742514;82;21052;-72
2022/03/01 11:02:08;;;;;;;12.68;7.97;;;;;;;0.92;82.39;100660.14;1742048;82;21000;-71
2022/03/01 11:04:40;;;;;;;12.33;7.55;;;;;;;0.96;82.22;100658.62;1715679;81;21457;-72
2022/03/01 11:07:07;;;;;;;14.18;8.25;;;;;;;0.96;82.00;100652.67;1742944;82;21136;-71
2022/03/01 11:09:33;;;;;;;14.30;8.23;;;;;;;0.90;82.02;100654.95;1733981;82;20956;-71
2022/03/01 11:12:06;;;;;;;16.05;8.00;;;;;;;0.94;82.38;100655.30;1738195;82;21062;-71
2022/03/01 11:14:58;;;;;;;17.92;8.23;;;;;;;0.98;82.17;100651.08;1736607;80;20977;-71
2022/03/01 11:18:05;;;;;;;15.35;7.92;;;;;;;1.01;82.31;100646.55;1737952;82;20953;-69
2022/03/01 11:20:40;;;;;;;;;;;;;;;1.07;82.05;100644.81;1743090;82;21591;-70
2022/03/01 11:23:12;;;;;;;13.32;8.10;;;;;;;1.12;82.21;100641.41;1736166;82;20119;-73
2022/03/01 11:25:45;;;;;;;16.50;8.88;;;;;;;1.17;81.56;100634.77;1740670;82;21012;-71
2022/03/01 11:28:12;;;;;;;14.20;8.65;;;;;;;1.06;81.41;100635.83;1742214;80;21501;-72
2022/03/01 11:30:45;;;;;;;13.78;8.23;;;;;;;1.02;81.95;100640.59;1743018;82;20917;-72
2022/03/01 11:33:12;;;;;;;13.32;9.03;;;;;;;0.96;81.74;100631.47;1737113;82;21934;-71
2022/03/01 11:35:51;;;;;;;15.88;9.15;;;;;;;0.83;81.97;100626.53;1711357;82;20905;-69